Time;durP1;ratioP1;P1;durP2;ratioP2;P2;SDS_P1;SDS_P2;PMS_P1;PMS_P2;Temp;Humidity;BMP_temperature;BMP_pressure;BME280_temperature;BME280_humidity;BME280_pressure;Samples;Min_cycle;Max_cycle;Signal;HPM_P1;HPM_P2
2021/07/21 00:00:29;;;;;;;9.68;8.68;;;;;;;26.06;45.02;99150.13;5013974;28;20026;-74
2021/07/21 00:02:55;;;;;;;9.65;8.05;;;;;;;26.08;45.19;99153.34;5009715;28;20431;-76
2021/07/21 00:05:23;;;;;;;11.48;9.15;;;;;;;26.08;45.15;99159.09;5010958;28;20034;-76
2021/07/21 00:07:49;;;;;;;10.43;8.68;;;;;;;25.98;45.36;99160.16;5006205;28;20029;-74
2021/07/21 00:10:17;;;;;;;11.18;8.77;;;;;;;26.04;45.46;99161.25;5013251;28;20092;-76
2021/07/21 00:15:30;;;;;;;13.45;8.35;;;;;;;26.02;45.38;99172.38;5012923;28;20040;-75
2021/07/21 00:18:04;;;;;;;9.90;8.05;;;;;;;25.97;45.70;99174.97;5005265;28;20042;-74
2021/07/21 00:20:31;;;;;;;11.10;8.02;;;;;;;25.92;45.89;99171.38;5007438;28;20030;-77
2021/07/21 00:22:57;;;;;;;13.05;9.45;;;;;;;25.92;45.68;99173.44;5000459;28;20142;-76
2021/07/21 00:25:23;;;;;;;9.10;7.97;;;;;;;25.86;45.61;99178.09;5009163;28;20042;-74
2021/07/21 00:27:48;;;;;;;15.40;8.05;;;;;;;25.82;45.78;99185.97;5012201;28;20030;-74
2021/07/21 00:30:17;;;;;;;12.98;8.02;;;;;;;25.80;45.95;99183.53;5011608;28;20484;-76
2021/07/21 00:32:43;;;;;;;9.48;8.55;;;;;;;25.77;46.18;99173.81;5003441;28;20382;-76
2021/07/21 00:35:11;;;;;;;10.77;9.63;;;;;;;25.74;45.98;99179.63;5013451;28;20033;-76
2021/07/21 00:37:37;;;;;;;10.50;9.18;;;;;;;25.67;46.03;99176.91;5027411;28;20061;-75
2021/07/21 00:40:08;;;;;;;10.10;7.90;;;;;;;25.68;46.49;99187.94;5011954;28;20475;-74
2021/07/21 00:42:34;;;;;;;16.92;8.65;;;;;;;25.67;46.67;99182.63;5012620;28;20029;-72
2021/07/21 00:44:59;;;;;;;17.73;8.18;;;;;;;25.64;46.59;99188.00;5013276;28;20517;-72
2021/07/21 00:47:25;;;;;;;9.80;8.68;;;;;;;25.71;46.18;99186.25;5010874;28;20038;-75
2021/07/21 00:49:50;;;;;;;11.10;8.27;;;;;;;25.72;46.38;99187.84;5011940;28;20030;-72
2021/07/21 00:52:17;;;;;;;13.50;8.10;;;;;;;25.71;46.43;99187.03;4998752;28;20038;-74
2021/07/21 00:54:44;;;;;;;13.45;8.27;;;;;;;25.63;46.41;99180.69;5013086;28;20021;-72
2021/07/21 00:57:10;;;;;;;9.32;8.23;;;;;;;25.55;46.60;99182.09;5010758;28;20037;-72
2021/07/21 00:59:36;;;;;;;10.25;7.10;;;;;;;25.60;46.66;99175.84;5011186;28;20049;-74
2021/07/21 01:02:02;;;;;;;10.48;7.75;;;;;;;25.65;46.06;99183.91;5012555;28;20624;-74
2021/07/21 01:04:32;;;;;;;15.43;7.50;;;;;;;25.70;45.94;99184.59;5012927;28;20026;-73
2021/07/21 01:06:59;;;;;;;10.77;9.30;;;;;;;25.60;45.99;99178.72;5011132;28;20025;-74
2021/07/21 01:09:26;;;;;;;8.82;7.75;;;;;;;25.63;46.00;99189.28;5023048;28;20032;-75
2021/07/21 01:12:11;;;;;;;11.45;7.93;;;;;;;25.66;45.91;99176.13;5010664;28;20427;-72
2021/07/21 01:14:46;;;;;;;11.57;8.55;;;;;;;25.58;46.07;99178.38;5011888;28;20455;-74
2021/07/21 01:17:18;;;;;;;12.25;7.47;;;;;;;25.56;46.45;99174.31;5010526;28;20558;-73
2021/07/21 01:20:19;;;;;;;10.10;7.80;;;;;;;25.53;46.28;99170.28;5012538;28;20042;-72
2021/07/21 01:22:47;;;;;;;8.48;7.18;;;;;;;25.38;46.72;99179.19;4996412;28;20122;-72
2021/07/21 01:25:23;;;;;;;8.98;8.07;;;;;;;25.37;46.79;99179.63;5026219;28;20049;-72
2021/07/21 01:28:02;;;;;;;16.27;7.70;;;;;;;25.27;46.94;99180.66;5027133;28;20061;-72
2021/07/21 01:30:35;;;;;;;11.60;7.95;;;;;;;25.27;46.59;99170.03;5024221;28;20515;-75
2021/07/21 01:33:13;;;;;;;11.93;7.93;;;;;;;25.30;46.77;99169.13;5027110;28;20033;-72
2021/07/21 01:36:02;;;;;;;11.23;7.93;;;;;;;25.26;46.45;99185.59;5026319;28;20499;-72
2021/07/21 01:38:40;;;;;;;12.18;8.27;;;;;;;25.18;47.06;99181.28;5012022;28;20471;-73
2021/07/21 01:41:20;;;;;;;10.18;7.75;;;;;;;25.11;46.94;99185.09;5011803;28;20495;-74
2021/07/21 01:43:47;;;;;;;;;;;;;;;25.22;46.87;99184.88;5010898;28;20064;-73
2021/07/21 01:46:13;;;;;;;11.13;8.63;;;;;;;25.19;46.82;99185.75;5000874;28;19921;-72
2021/07/21 01:48:43;;;;;;;10.30;8.48;;;;;;;25.20;46.83;99181.63;5011792;28;20032;-73
2021/07/21 01:51:10;;;;;;;11.70;8.32;;;;;;;25.20;46.92;99185.31;5009708;28;20049;-73
2021/07/21 01:53:37;;;;;;;9.75;7.28;;;;;;;25.17;46.96;99189.06;5025919;28;20080;-74
2021/07/21 01:56:06;;;;;;;12.30;8.25;;;;;;;25.08;46.72;99186.78;5010009;28;20103;-75
2021/07/21 01:58:33;;;;;;;9.80;7.70;;;;;;;25.08;47.04;99189.66;5011383;28;20113;-75
2021/07/21 02:00:59;;;;;;;12.10;8.20;;;;;;;25.19;46.68;99198.00;5010957;28;20496;-73
2021/07/21 02:03:26;;;;;;;15.32;8.40;;;;;;;25.21;46.42;99194.69;5010486;28;20045;-72
2021/07/21 02:05:59;;;;;;;10.52;9.07;;;;;;;25.23;46.56;99200.81;5009888;28;20124;-72
2021/07/21 02:08:25;;;;;;;11.98;7.07;;;;;;;25.22;46.40;99202.06;5011223;28;20076;-75
2021/07/21 02:10:51;;;;;;;13.18;8.15;;;;;;;25.20;46.44;99201.66;5026310;28;20057;-74
2021/07/21 02:13:18;;;;;;;11.85;8.07;;;;;;;25.21;46.07;99201.22;5004466;28;20423;-73
2021/07/21 02:15:45;;;;;;;11.88;8.50;;;;;;;25.19;46.24;99203.72;5009844;28;20038;-75
2021/07/21 02:18:16;;;;;;;9.82;8.38;;;;;;;25.13;46.45;99207.56;5009493;28;20408;-73
2021/07/21 02:20:43;;;;;;;13.93;9.20;;;;;;;25.11;46.72;99212.91;5010523;28;20034;-75
2021/07/21 02:23:09;;;;;;;11.38;8.18;;;;;;;25.11;46.40;99210.06;5010881;28;20079;-72
2021/07/21 02:25:36;;;;;;;9.98;8.98;;;;;;;25.06;46.72;99209.31;5010842;28;20034;-74
2021/07/21 02:28:01;;;;;;;12.88;9.10;;;;;;;25.09;46.50;99205.56;5011343;28;20065;-74
2021/07/21 02:30:30;;;;;;;12.35;8.10;;;;;;;25.06;46.92;99214.25;5025856;28;20053;-75
2021/07/21 02:33:25;;;;;;;10.25;9.25;;;;;;;25.01;47.07;99206.97;5002923;28;20026;-75
2021/07/21 02:35:50;;;;;;;10.00;9.00;;;;;;;24.95;46.89;99205.88;4996132;28;20050;-72
2021/07/21 02:38:16;;;;;;;15.25;10.70;;;;;;;25.01;46.62;99198.41;5010592;28;20040;-72
2021/07/21 02:40:43;;;;;;;16.23;10.32;;;;;;;24.91;46.88;99203.06;5009840;28;20026;-74
2021/07/21 02:43:08;;;;;;;13.15;10.65;;;;;;;24.88;47.21;99203.19;5010711;28;20037;-73
2021/07/21 02:45:35;;;;;;;16.10;10.18;;;;;;;24.94;46.69;99195.69;5009206;28;20018;-73
2021/07/21 02:48:02;;;;;;;13.95;10.43;;;;;;;24.99;47.01;99206.63;5010634;28;20385;-74
2021/07/21 02:50:28;;;;;;;12.65;10.20;;;;;;;24.93;46.98;99205.50;5009451;28;20037;-74
2021/07/21 02:53:00;;;;;;;11.48;10.27;;;;;;;24.88;46.81;99208.91;5009898;28;20022;-72
2021/07/21 02:55:53;;;;;;;11.75;9.50;;;;;;;24.87;46.77;99210.94;5006262;28;20060;-74
2021/07/21 02:58:38;;;;;;;13.15;10.02;;;;;;;24.86;46.87;99209.31;5009203;28;20118;-75
2021/07/21 03:01:05;;;;;;;11.30;9.43;;;;;;;24.90;46.93;99209.25;5010395;28;20114;-72
2021/07/21 03:03:33;;;;;;;11.57;10.25;;;;;;;24.90;46.77;99206.41;5010467;28;20026;-74
2021/07/21 03:06:04;;;;;;;24.85;16.38;;;;;;;24.81;47.28;99213.50;5008986;28;20120;-75
2021/07/21 03:08:31;;;;;;;57.58;33.00;;;;;;;24.78;47.10;99214.38;5009275;28;20034;-73
2021/07/21 03:10:59;;;;;;;27.83;20.50;;;;;;;24.79;47.21;99216.00;5007831;28;20073;-72
2021/07/21 03:13:41;;;;;;;18.58;13.75;;;;;;;24.82;47.08;99217.19;5011585;28;20026;-75
2021/07/21 03:16:07;;;;;;;19.75;14.20;;;;;;;24.72;47.05;99218.97;5029581;28;20038;-73
2021/07/21 03:18:33;;;;;;;25.10;14.05;;;;;;;24.70;47.44;99218.59;5013763;28;20046;-70
2021/07/21 03:20:59;;;;;;;21.52;14.75;;;;;;;24.73;47.26;99222.63;5014211;28;20041;-73
2021/07/21 03:23:27;;;;;;;19.42;13.38;;;;;;;24.71;47.48;99225.13;5028772;28;20037;-71
2021/07/21 03:25:55;;;;;;;15.57;12.25;;;;;;;24.70;47.28;99221.44;5014178;28;20045;-71
2021/07/21 03:28:25;;;;;;;16.23;11.57;;;;;;;24.72;47.55;99218.97;5013146;28;20479;-70
2021/07/21 03:30:53;;;;;;;11.93;10.60;;;;;;;24.68;47.18;99229.66;5012945;28;20521;-71
2021/07/21 03:33:19;;;;;;;21.58;10.88;;;;;;;24.71;47.49;99240.22;5013197;28;20022;-73
2021/07/21 03:35:46;;;;;;;18.52;10.95;;;;;;;24.62;47.84;99237.94;5013967;28;20052;-78
2021/07/21 03:38:13;;;;;;;12.98;10.57;;;;;;;24.64;47.96;99237.53;5011828;28;20480;-79
2021/07/21 03:40:40;;;;;;;14.30;11.02;;;;;;;24.69;47.54;99242.72;5012775;28;20396;-74
2021/07/21 03:43:07;;;;;;;15.38;11.55;;;;;;;24.72;47.18;99250.41;5013756;28;20014;-69
2021/07/21 03:45:33;;;;;;;17.63;11.07;;;;;;;24.72;47.38;99253.28;5014347;28;20029;-74
2021/07/21 03:47:59;;;;;;;19.27;11.75;;;;;;;24.62;47.35;99266.53;5010872;28;20121;-74
2021/07/21 03:50:25;;;;;;;15.70;11.25;;;;;;;24.59;47.48;99258.00;5010625;28;20108;-74
2021/07/21 03:52:52;;;;;;;19.08;11.10;;;;;;;24.57;47.42;99267.06;5005949;28;20022;-70
2021/07/21 03:55:21;;;;;;;16.20;10.77;;;;;;;24.56;48.07;99259.72;5011733;28;20030;-70
2021/07/21 03:57:47;;;;;;;16.38;10.57;;;;;;;24.68;47.88;99261.94;5010943;28;20038;-74
2021/07/21 04:00:16;;;;;;;15.60;10.93;;;;;;;24.70;47.72;99260.69;5012456;28;20072;-74
2021/07/21 04:02:45;;;;;;;17.60;11.85;;;;;;;24.68;47.96;99269.69;5012254;28;20495;-73
2021/07/21 04:05:14;;;;;;;19.02;11.70;;;;;;;24.66;48.02;99269.34;5013630;28;20029;-70
2021/07/21 04:07:42;;;;;;;19.70;10.93;;;;;;;24.67;48.19;99268.09;5012617;28;20037;-70
2021/07/21 04:10:08;;;;;;;17.85;11.15;;;;;;;24.76;48.19;99278.94;5007714;28;20038;-74
2021/07/21 04:12:36;;;;;;;20.83;12.07;;;;;;;24.81;48.15;99276.41;5008694;28;20499;-74
2021/07/21 04:15:03;;;;;;;16.15;10.77;;;;;;;24.84;48.21;99273.91;5014026;28;20038;-74
2021/07/21 04:17:30;;;;;;;21.88;12.27;;;;;;;24.85;48.28;99272.66;5011515;28;20088;-74
2021/07/21 04:19:56;;;;;;;19.27;10.75;;;;;;;24.78;48.77;99283.03;5012654;28;20025;-70
2021/07/21 04:22:23;;;;;;;19.13;11.10;;;;;;;24.93;48.17;99271.28;5012055;28;20041;-69
2021/07/21 04:24:49;;;;;;;17.33;11.05;;;;;;;24.93;48.48;99279.88;5012948;28;20041;-75
2021/07/21 04:27:15;;;;;;;20.52;11.73;;;;;;;24.97;48.47;99283.47;5012224;28;20049;-70
2021/07/21 04:29:46;;;;;;;17.45;11.70;;;;;;;25.02;48.69;99285.81;5012954;28;20088;-70
2021/07/21 04:32:13;;;;;;;19.13;12.05;;;;;;;24.98;48.75;99285.09;5013099;28;20030;-74
2021/07/21 04:34:40;;;;;;;13.27;10.20;;;;;;;24.86;49.09;99288.59;5011118;28;20471;-74
2021/07/21 04:37:06;;;;;;;19.08;11.52;;;;;;;24.94;48.95;99278.63;5028223;28;20030;-70
2021/07/21 04:39:32;;;;;;;16.95;11.60;;;;;;;24.98;48.63;99287.97;5013272;28;20480;-70
2021/07/21 04:41:58;;;;;;;19.48;12.93;;;;;;;24.93;48.31;99285.59;5012774;28;20109;-72
2021/07/21 04:44:23;;;;;;;18.83;10.27;;;;;;;24.98;48.01;99279.38;5012762;28;20101;-74
2021/07/21 04:46:52;;;;;;;22.88;11.23;;;;;;;25.01;47.79;99289.13;5011810;28;20033;-69
2021/07/21 04:49:18;;;;;;;20.08;11.45;;;;;;;25.02;47.88;99291.56;5013109;28;20511;-73
2021/07/21 04:51:46;;;;;;;20.65;12.23;;;;;;;25.01;48.53;99292.78;5012474;28;20045;-69
2021/07/21 04:54:11;;;;;;;17.83;11.40;;;;;;;25.04;48.74;99294.78;5012388;28;20095;-70
2021/07/21 04:56:37;;;;;;;15.45;11.23;;;;;;;25.03;48.73;99298.88;5013039;28;20030;-70
2021/07/21 04:59:03;;;;;;;19.88;10.73;;;;;;;25.09;48.18;99296.31;5012548;28;20468;-73
2021/07/21 05:01:29;;;;;;;27.00;11.75;;;;;;;25.09;48.47;99296.31;5027800;28;20120;-70
2021/07/21 05:03:54;;;;;;;18.30;10.77;;;;;;;25.06;47.84;99298.00;5011572;28;20121;-74
2021/07/21 05:06:23;;;;;;;19.90;12.30;;;;;;;25.07;48.15;99305.31;5000229;28;20026;-70
2021/07/21 05:08:50;;;;;;;21.52;10.82;;;;;;;25.12;48.02;99317.53;5022651;28;20985;-74
2021/07/21 05:11:16;;;;;;;20.35;10.60;;;;;;;25.17;47.35;99314.16;5027406;28;20033;-75
2021/07/21 05:13:42;;;;;;;15.07;11.60;;;;;;;25.22;47.70;99308.72;5012087;28;20030;-74
2021/07/21 05:16:08;;;;;;;13.82;10.77;;;;;;;25.18;47.59;99313.72;5012123;28;20415;-74
2021/07/21 05:18:35;;;;;;;19.27;11.93;;;;;;;25.24;46.71;99299.69;5012345;28;20061;-75
2021/07/21 05:21:01;;;;;;;29.52;12.80;;;;;;;25.28;46.28;99308.19;5012090;28;20030;-69
2021/07/21 05:23:27;;;;;;;23.92;11.15;;;;;;;25.31;46.54;99302.41;5007508;28;20054;-72
2021/07/21 05:25:52;;;;;;;32.30;12.70;;;;;;;25.31;45.87;99308.13;5004425;28;20030;-69
2021/07/21 05:28:18;;;;;;;21.00;10.48;;;;;;;25.37;46.24;99314.97;5009492;28;20085;-69
2021/07/21 05:30:43;;;;;;;23.10;11.43;;;;;;;25.42;45.93;99305.06;5012160;28;20030;-74
2021/07/21 05:33:09;;;;;;;26.63;11.02;;;;;;;25.45;45.30;99306.19;5011260;28;20046;-70
2021/07/21 05:35:34;;;;;;;21.58;11.23;;;;;;;25.47;45.53;99300.88;5011861;28;20018;-74
2021/07/21 05:38:01;;;;;;;18.55;10.98;;;;;;;25.58;46.00;99310.06;5011325;28;20038;-71
2021/07/21 05:40:27;;;;;;;26.08;11.10;;;;;;;25.64;44.67;99302.53;5012028;28;20030;-74
2021/07/21 05:42:52;;;;;;;21.38;12.07;;;;;;;25.69;44.66;99309.00;5010691;28;20036;-73
2021/07/21 05:45:18;;;;;;;18.95;11.40;;;;;;;25.74;45.54;99317.06;5011899;28;20037;-69
2021/07/21 05:47:43;;;;;;;22.05;11.70;;;;;;;25.86;44.17;99313.53;5011603;28;20032;-71
2021/07/21 05:50:09;;;;;;;21.20;11.65;;;;;;;25.91;45.23;99315.84;5010123;28;20427;-70
2021/07/21 05:52:35;;;;;;;18.42;11.65;;;;;;;25.90;45.28;99314.25;5010798;28;20038;-71
2021/07/21 05:55:00;;;;;;;19.00;11.85;;;;;;;26.02;44.58;99314.78;5026864;28;20408;-72
2021/07/21 05:57:27;;;;;;;41.67;13.18;;;;;;;25.97;44.63;99318.19;5011654;28;20407;-71
2021/07/21 05:59:52;;;;;;;19.08;11.40;;;;;;;25.88;45.10;99322.47;5011682;28;20029;-75
2021/07/21 06:02:19;;;;;;;53.15;14.43;;;;;;;26.03;44.17;99313.53;5010284;28;20036;-70
2021/07/21 06:04:44;;;;;;;15.43;11.02;;;;;;;26.23;43.47;99322.09;5011782;28;20033;-74
2021/07/21 06:07:10;;;;;;;16.15;10.60;;;;;;;26.24;44.09;99323.69;5011361;28;20041;-70
2021/07/21 06:09:36;;;;;;;23.17;11.10;;;;;;;26.25;43.60;99318.78;5009939;28;20510;-72
2021/07/21 06:12:02;;;;;;;23.40;10.40;;;;;;;26.28;43.26;99320.75;5009578;28;20030;-70
2021/07/21 06:14:27;;;;;;;20.17;10.45;;;;;;;26.40;42.77;99314.31;5009480;28;20029;-74
2021/07/21 06:16:53;;;;;;;23.17;10.70;;;;;;;26.38;41.59;99313.94;5007748;28;20068;-74
2021/07/21 06:19:20;;;;;;;16.35;9.75;;;;;;;26.42;41.61;99319.59;5008982;28;20051;-75
2021/07/21 06:21:45;;;;;;;16.80;10.75;;;;;;;26.42;41.98;99325.34;5008323;28;20036;-74
2021/07/21 06:24:11;;;;;;;22.90;11.48;;;;;;;26.35;42.24;99329.19;4997048;28;20451;-74
2021/07/21 06:26:36;;;;;;;16.80;10.32;;;;;;;26.44;42.05;99335.09;5008060;28;20026;-75
2021/07/21 06:29:03;;;;;;;20.70;10.85;;;;;;;26.48;40.55;99329.25;5008738;28;20046;-74
2021/07/21 06:31:29;;;;;;;20.35;10.30;;;;;;;26.54;40.85;99321.75;5009602;28;20092;-72
2021/07/21 06:33:54;;;;;;;38.63;12.95;;;;;;;26.58;40.46;99328.19;5011307;28;20439;-75
2021/07/21 06:36:20;;;;;;;22.08;11.57;;;;;;;26.61;40.44;99327.31;5009409;28;20038;-70
2021/07/21 06:38:45;;;;;;;19.98;10.73;;;;;;;26.71;40.17;99324.59;5009530;28;20519;-75
2021/07/21 06:41:11;;;;;;;25.17;10.57;;;;;;;26.71;39.87;99325.41;5009748;28;20431;-70
2021/07/21 06:43:36;;;;;;;20.08;11.30;;;;;;;26.81;39.27;99319.84;5009395;28;20018;-70
2021/07/21 06:46:03;;;;;;;17.75;10.90;;;;;;;26.81;39.53;99320.63;5010720;28;20081;-75
2021/07/21 06:48:29;;;;;;;22.45;10.68;;;;;;;26.86;39.45;99325.00;5007797;28;20523;-70
2021/07/21 06:50:54;;;;;;;20.73;10.32;;;;;;;26.83;38.96;99323.06;5010612;28;20149;-70
2021/07/21 06:53:20;;;;;;;13.70;9.82;;;;;;;26.90;38.93;99317.97;5010555;28;20030;-70
2021/07/21 06:55:45;;;;;;;20.98;12.43;;;;;;;26.81;38.56;99316.97;5011114;28;20022;-77
2021/07/21 06:58:11;;;;;;;37.50;12.75;;;;;;;26.92;38.67;99326.13;5010473;28;20100;-76
2021/07/21 07:00:36;;;;;;;23.55;10.90;;;;;;;26.59;39.86;99317.53;5008002;28;20041;-71
2021/07/21 07:03:02;;;;;;;21.25;10.25;;;;;;;26.61;40.80;99327.31;5025548;28;20096;-69
2021/07/21 07:05:27;;;;;;;48.00;11.80;;;;;;;26.59;40.40;99326.13;5010498;28;20045;-71
2021/07/21 07:07:53;;;;;;;22.30;10.40;;;;;;;26.74;39.44;99323.69;5009491;28;20022;-69
2021/07/21 07:10:19;;;;;;;20.17;10.77;;;;;;;26.63;38.72;99321.91;5010581;28;20041;-68
2021/07/21 07:12:48;;;;;;;20.30;10.80;;;;;;;26.78;39.82;99319.47;5010412;28;20034;-67
2021/07/21 07:15:13;;;;;;;19.77;11.13;;;;;;;26.99;39.05;99328.78;5011118;28;20301;-69
2021/07/21 07:17:39;;;;;;;26.83;11.98;;;;;;;27.03;37.62;99335.25;5009135;28;20054;-67
2021/07/21 07:20:06;;;;;;;21.27;10.95;;;;;;;26.99;37.08;99322.25;5009360;28;20026;-68
2021/07/21 07:22:32;;;;;;;16.98;10.18;;;;;;;26.94;36.88;99325.66;5005537;28;20034;-68
2021/07/21 07:25:00;;;;;;;27.23;12.70;;;;;;;26.97;36.25;99328.44;5024999;28;20045;-68
2021/07/21 07:27:29;;;;;;;18.10;12.10;;;;;;;27.09;36.04;99328.94;5009789;28;20466;-68
2021/07/21 07:29:55;;;;;;;18.60;10.82;;;;;;;27.17;36.26;99333.22;5008918;28;20069;-68
2021/07/21 07:32:20;;;;;;;15.27;11.07;;;;;;;27.39;36.13;99333.41;5010085;28;20033;-68
2021/07/21 07:34:46;;;;;;;24.88;11.02;;;;;;;27.41;35.23;99330.09;5010510;28;20034;-69
2021/07/21 07:37:12;;;;;;;22.33;10.82;;;;;;;27.41;33.90;99325.13;5008930;28;20436;-70
2021/07/21 07:39:38;;;;;;;15.52;10.07;;;;;;;27.32;34.45;99320.06;5010436;28;20026;-68
2021/07/21 07:42:04;;;;;;;23.35;11.10;;;;;;;27.37;33.86;99323.63;5009819;28;20107;-67
2021/07/21 07:44:30;;;;;;;15.48;10.02;;;;;;;27.43;33.77;99327.56;5010471;28;20026;-68
2021/07/21 07:46:56;;;;;;;21.13;10.15;;;;;;;27.21;34.84;99327.38;5009211;28;20049;-69
2021/07/21 07:49:21;;;;;;;19.60;11.57;;;;;;;27.49;34.45;99313.44;5003119;28;20494;-70
2021/07/21 07:51:48;;;;;;;20.88;10.73;;;;;;;27.57;33.58;99314.84;5008976;28;20026;-69
2021/07/21 07:54:15;;;;;;;27.08;11.27;;;;;;;27.67;33.64;99328.09;5009682;28;20030;-69
2021/07/21 07:56:41;;;;;;;23.42;11.27;;;;;;;27.46;32.31;99306.53;5003632;28;20511;-69
2021/07/21 07:59:07;;;;;;;32.33;11.40;;;;;;;27.60;33.18;99326.25;5008907;28;20034;-69
2021/07/21 08:01:32;;;;;;;23.65;11.35;;;;;;;27.60;32.71;99320.50;5011713;28;20503;-70
2021/07/21 08:03:58;;;;;;;21.60;10.00;;;;;;;27.79;32.88;99320.78;5013192;28;20120;-69
2021/07/21 08:06:23;;;;;;;21.65;11.05;;;;;;;27.80;33.78;99316.63;5011549;28;20040;-70
2021/07/21 08:08:49;;;;;;;17.45;11.38;;;;;;;27.98;32.45;99318.13;5011066;28;20034;-68
2021/07/21 08:11:16;;;;;;;28.52;12.05;;;;;;;28.09;28.97;99321.47;5009746;28;20030;-68
2021/07/21 08:13:41;;;;;;;21.58;12.07;;;;;;;28.06;29.44;99313.75;5012174;28;20045;-69
2021/07/21 08:16:08;;;;;;;20.33;12.07;;;;;;;28.09;28.71;99323.53;5011578;28;20034;-68
2021/07/21 08:18:34;;;;;;;24.55;11.07;;;;;;;28.21;29.38;99310.44;5011180;28;20413;-68
2021/07/21 08:20:59;;;;;;;27.25;11.90;;;;;;;28.30;30.29;99319.19;5011558;28;20117;-69
2021/07/21 08:23:25;;;;;;;18.42;11.00;;;;;;;28.24;27.95;99321.03;5010948;28;20087;-67
2021/07/21 08:25:51;;;;;;;28.92;11.82;;;;;;;28.39;29.33;99322.16;5012472;28;20096;-67
2021/07/21 08:28:17;;;;;;;16.05;11.00;;;;;;;28.43;27.55;99311.34;5011441;28;20503;-66
2021/07/21 08:30:44;;;;;;;37.47;12.90;;;;;;;28.45;28.77;99316.66;5012962;28;20088;-70
2021/07/21 08:33:10;;;;;;;24.02;11.88;;;;;;;28.34;28.85;99319.88;5011734;28;20045;-69
2021/07/21 08:35:38;;;;;;;29.73;11.30;;;;;;;28.38;26.96;99314.00;5011534;28;20034;-69
2021/07/21 08:38:06;;;;;;;19.33;11.25;;;;;;;28.41;27.22;99310.19;5012422;28;20030;-67
2021/07/21 08:40:32;;;;;;;23.70;10.05;;;;;;;28.68;26.91;99314.63;5013069;28;20168;-68
2021/07/21 08:42:58;;;;;;;26.17;11.60;;;;;;;28.76;24.76;99315.97;5009844;28;20507;-68
2021/07/21 08:45:24;;;;;;;19.52;11.23;;;;;;;28.81;26.81;99320.34;5010026;28;20037;-68
2021/07/21 08:47:50;;;;;;;17.48;10.25;;;;;;;28.70;26.92;99312.09;5007547;28;20025;-68
2021/07/21 08:50:16;;;;;;;20.13;10.25;;;;;;;28.73;27.84;99311.16;5012092;28;20033;-67
2021/07/21 08:52:43;;;;;;;19.73;10.65;;;;;;;28.62;27.62;99314.44;5010499;28;20022;-68
2021/07/21 08:55:11;;;;;;;21.98;9.98;;;;;;;28.69;27.93;99316.25;5024823;28;20207;-68
2021/07/21 08:57:37;;;;;;;13.82;10.32;;;;;;;28.78;27.90;99319.22;5009096;28;20034;-69
2021/07/21 09:00:10;;;;;;;19.83;10.65;;;;;;;28.77;27.39;99311.03;5011228;28;20034;-69
2021/07/21 09:02:37;;;;;;;16.55;9.75;;;;;;;28.95;27.36;99311.22;5011012;28;20492;-74
2021/07/21 09:05:04;;;;;;;23.23;9.90;;;;;;;29.03;27.08;99305.22;5012617;28;20105;-72
2021/07/21 09:07:30;;;;;;;14.27;9.43;;;;;;;29.06;27.74;99307.16;5011776;28;20491;-70
2021/07/21 09:09:55;;;;;;;20.70;10.20;;;;;;;29.21;25.77;99304.56;5011175;28;20036;-71
2021/07/21 09:12:21;;;;;;;15.00;9.70;;;;;;;29.28;27.13;99289.91;5008741;28;20135;-72
2021/07/21 09:14:46;;;;;;;14.68;9.80;;;;;;;29.45;26.04;99295.47;5006297;28;20034;-72
2021/07/21 09:17:14;;;;;;;19.20;10.20;;;;;;;29.42;25.84;99300.88;5012099;28;20057;-75
2021/07/21 09:19:42;;;;;;;15.48;9.77;;;;;;;29.67;24.97;99286.78;5007577;28;20164;-70
2021/07/21 09:22:16;;;;;;;13.88;9.32;;;;;;;29.73;25.60;99293.56;5011775;28;20041;-71
2021/07/21 09:24:43;;;;;;;12.77;9.15;;;;;;;29.73;26.39;99293.56;5012802;28;20030;-70
2021/07/21 09:27:09;;;;;;;16.65;9.35;;;;;;;29.79;26.64;99300.28;5010657;28;20117;-74
2021/07/21 09:29:35;;;;;;;16.60;10.32;;;;;;;29.93;26.91;99289.50;5010812;28;20125;-78
2021/07/21 09:32:02;;;;;;;18.60;10.00;;;;;;;29.77;26.66;99288.44;5012050;28;20033;-73
2021/07/21 09:34:29;;;;;;;13.63;9.18;;;;;;;29.72;25.70;99286.19;5006988;28;20026;-72
2021/07/21 09:37:03;;;;;;;16.48;9.93;;;;;;;29.84;26.29;99284.47;5008376;28;20120;-72
2021/07/21 09:39:38;;;;;;;19.98;9.32;;;;;;;29.85;25.63;99286.06;5008378;28;20117;-79
2021/07/21 09:42:05;;;;;;;14.82;8.88;;;;;;;29.87;23.65;99274.06;5018549;28;20108;-70
2021/07/21 09:44:33;;;;;;;15.80;9.07;;;;;;;29.93;23.82;99275.09;5010399;28;20038;-71
2021/07/21 09:47:20;;;;;;;24.20;9.80;;;;;;;29.81;24.42;99283.34;5011851;28;20040;-74
2021/07/21 09:49:46;;;;;;;16.77;8.77;;;;;;;30.22;23.39;99271.03;5003546;28;20038;-72
2021/07/21 09:52:19;;;;;;;24.60;9.20;;;;;;;30.21;21.94;99269.44;5007796;28;20038;-70
2021/07/21 09:55:13;;;;;;;15.65;8.30;;;;;;;30.18;22.36;99267.50;5008661;28;20045;-69
2021/07/21 09:57:39;;;;;;;24.88;8.32;;;;;;;30.10;23.08;99273.56;4997612;28;20496;-69
2021/07/21 10:00:19;;;;;;;11.25;8.75;;;;;;;30.10;23.39;99269.84;5007569;28;20042;-70
2021/07/21 10:02:45;;;;;;;;;;;;;;;30.46;24.47;99262.56;5007149;28;20033;-69
2021/07/21 10:05:11;;;;;;;18.35;8.45;;;;;;;30.58;23.10;99257.97;5011589;28;20410;-70
2021/07/21 10:10:14;;;;;;;15.15;9.02;;;;;;;30.63;23.06;99254.44;5011438;28;20044;-72
2021/07/21 10:12:42;;;;;;;9.32;7.88;;;;;;;30.66;23.11;99244.03;5008340;28;20033;-72
2021/07/21 10:15:08;;;;;;;12.75;8.05;;;;;;;30.44;22.97;99252.81;5010051;28;20029;-71
2021/07/21 10:17:34;;;;;;;12.27;7.90;;;;;;;30.62;22.88;99235.50;5009985;28;20056;-76
2021/07/21 10:19:59;;;;;;;16.00;7.50;;;;;;;31.08;23.47;99237.63;5011455;28;20419;-71
2021/07/21 10:22:26;;;;;;;21.23;8.32;;;;;;;31.12;23.23;99240.31;5011205;28;20022;-70
2021/07/21 10:24:52;;;;;;;17.65;8.38;;;;;;;30.81;22.27;99241.31;5011266;28;20037;-72
2021/07/21 10:27:18;;;;;;;9.57;7.28;;;;;;;30.68;21.04;99233.63;5009943;28;20065;-74
2021/07/21 10:29:44;;;;;;;21.95;7.43;;;;;;;30.66;19.08;99246.94;5009193;28;20611;-70
2021/07/21 10:32:11;;;;;;;26.67;8.45;;;;;;;31.02;21.03;99233.75;5010759;28;20087;-72
2021/07/21 10:34:37;;;;;;;11.98;8.00;;;;;;;31.13;21.01;99230.38;5010899;28;20036;-73
2021/07/21 10:37:03;;;;;;;26.52;9.07;;;;;;;31.13;21.34;99230.38;5008877;28;20040;-72
2021/07/21 10:39:31;;;;;;;18.80;7.25;;;;;;;30.94;20.14;99227.53;5010572;28;20034;-73
2021/07/21 10:42:01;;;;;;;21.98;7.70;;;;;;;30.89;18.77;99228.19;5010706;28;20030;-73
2021/07/21 10:44:27;;;;;;;9.70;6.43;;;;;;;30.98;20.00;99210.03;5009589;28;20072;-73
2021/07/21 10:46:53;;;;;;;19.75;6.63;;;;;;;31.11;17.75;99209.84;5008441;28;20077;-73
2021/07/21 10:49:49;;;;;;;11.88;6.57;;;;;;;31.02;18.86;99209.88;5009410;28;20041;-72
2021/07/21 11:00:32;;;;;;;23.08;8.30;;;;;;;31.20;18.69;99203.28;5010447;28;20103;-70
2021/07/21 11:03:16;;;;;;;17.00;7.38;;;;;;;31.24;20.25;99203.91;4996380;28;20038;-70
2021/07/21 11:05:50;;;;;;;12.10;6.30;;;;;;;31.63;19.95;99189.66;5008662;28;20030;-71
2021/07/21 11:08:22;;;;;;;15.82;6.40;;;;;;;31.42;18.98;99194.41;5007085;28;20026;-71
2021/07/21 11:10:52;;;;;;;20.83;7.20;;;;;;;31.07;19.29;99189.00;5007646;28;20463;-70
2021/07/21 11:13:30;;;;;;;14.38;6.90;;;;;;;31.15;18.84;99189.47;5008481;28;20033;-70
2021/07/21 11:16:02;;;;;;;10.73;6.30;;;;;;;31.05;18.69;99185.81;5008226;28;20029;-70
2021/07/21 11:18:27;;;;;;;9.98;6.65;;;;;;;31.32;19.57;99182.09;5008297;28;20046;-70
2021/07/21 11:21:11;;;;;;;9.90;7.28;;;;;;;31.46;19.58;99177.69;5009238;28;20109;-71
2021/07/21 11:23:49;;;;;;;38.00;8.52;;;;;;;31.37;19.84;99175.63;5018696;28;20022;-70
2021/07/21 11:26:35;;;;;;;13.80;7.63;;;;;;;31.34;18.38;99181.56;5010223;28;20113;-70
2021/07/21 11:29:23;;;;;;;8.52;6.45;;;;;;;31.67;18.87;99180.81;5010524;28;20030;-70
2021/07/21 11:31:48;;;;;;;15.82;7.00;;;;;;;31.56;19.04;99186.31;5003761;28;20535;-70
2021/07/21 11:34:14;;;;;;;8.95;6.45;;;;;;;31.35;19.17;99174.50;5010784;28;20113;-70
2021/07/21 11:36:40;;;;;;;8.95;7.47;;;;;;;31.44;19.92;99176.59;5013206;28;20038;-70
2021/07/21 11:39:28;;;;;;;18.90;8.60;;;;;;;31.76;20.81;99177.88;5013836;28;20559;-70